Ibiai, Brazil
Current Conditions -  °F | °C
As of 9:00 PM on Wednesday 22 Oct 2014 (Local Time) from SBMK Reporting Station
Broken Clouds Broken Clouds  
Wind Chill: 73°   Ceiling: 10000
Heat Index: 73°   Visibility: 6mi
Dew Point: 59°   Wind: 6mph
Humidity: 61%   Direction: 80°E
Pressure: 30.09"   Gusts: NA
Location:  16.86°S, 44.91°W
Report Text: SBMK 222300Z 08005KT 040V100 9999 FEW048 BKN100 23/15 Q1019
Loading
Personal Weather Stations






























Interactive Weather Map
Tropical Storm Tracking
New forecast layout! Learn more

10-Day Weather Forecast

Advertisements
Track Severe Weather on mobile